Time;durP1;ratioP1;P1;durP2;ratioP2;P2;SDS_P1;SDS_P2;PMS_P1;PMS_P2;Temp;Humidity;BMP_temperature;BMP_pressure;BME280_temperature;BME280_humidity;BME280_pressure;Samples;Min_cycle;Max_cycle;Signal;HPM_P1;HPM_P2
2024/01/27 00:01:37;;;;;;;22.15;8.30;;;;;;;-1.15;70.71;99310.44;4967784;28;20084;-61
2024/01/27 00:04:03;;;;;;;19.05;7.88;;;;;;;-1.06;70.84;99313.91;4987960;28;20509;-62
2024/01/27 00:06:29;;;;;;;20.70;8.88;;;;;;;-0.84;70.85;99344.66;5005562;28;20052;-62
2024/01/27 00:08:55;;;;;;;21.02;9.13;;;;;;;-0.83;70.81;99331.88;4984161;28;20148;-62
2024/01/27 00:11:23;;;;;;;26.25;8.77;;;;;;;-0.83;70.72;99326.78;4983307;28;20598;-63
2024/01/27 00:13:49;;;;;;;20.40;8.10;;;;;;;-0.88;70.93;99336.97;4993439;28;20524;-62
2024/01/27 00:16:15;;;;;;;19.55;8.43;;;;;;;-0.94;71.04;99334.38;4985386;28;20045;-60
2024/01/27 00:18:41;;;;;;;19.58;9.10;;;;;;;-0.97;70.80;99331.81;4988566;28;20517;-61
2024/01/27 00:21:07;;;;;;;20.23;8.38;;;;;;;-0.93;71.11;99337.78;4984932;28;20050;-62
2024/01/27 00:23:34;;;;;;;22.50;9.15;;;;;;;-0.91;71.06;99339.50;4963828;28;20762;-62
2024/01/27 00:26:01;;;;;;;24.52;8.55;;;;;;;-1.13;71.00;99306.19;4976186;28;20053;-61
2024/01/27 00:28:27;;;;;;;21.00;8.82;;;;;;;-0.94;70.75;99339.47;4998185;28;20078;-63
2024/01/27 00:30:52;;;;;;;20.88;8.60;;;;;;;-0.93;70.79;99336.06;4987339;28;20489;-61
2024/01/27 00:33:18;;;;;;;20.17;8.85;;;;;;;-0.92;70.99;99336.94;4968903;28;20101;-60
2024/01/27 00:35:44;;;;;;;20.58;8.55;;;;;;;-0.91;71.13;99336.94;5000968;28;20433;-62
2024/01/27 00:38:10;;;;;;;18.35;8.40;;;;;;;-0.93;70.84;99342.88;4992649;28;20663;-62
2024/01/27 00:40:36;;;;;;;20.95;9.18;;;;;;;-0.99;71.24;99338.59;4988643;28;20054;-62
2024/01/27 00:43:03;;;;;;;22.95;9.15;;;;;;;-1.00;70.94;99341.16;5005038;28;20557;-62
2024/01/27 00:45:30;;;;;;;20.90;9.30;;;;;;;-1.29;70.87;99308.66;4996417;28;20074;-64
2024/01/27 00:47:58;;;;;;;22.23;9.23;;;;;;;-1.10;71.51;99350.41;4990945;28;20033;-62
2024/01/27 00:50:25;;;;;;;22.17;8.70;;;;;;;-1.06;71.05;99346.22;4987325;28;20041;-64
2024/01/27 00:52:51;;;;;;;24.35;9.43;;;;;;;-1.27;71.26;99320.56;5004293;28;20292;-63
2024/01/27 00:55:20;;;;;;;21.05;9.40;;;;;;;-1.06;71.06;99351.31;5006602;28;20184;-63
2024/01/27 00:57:46;;;;;;;23.45;8.90;;;;;;;-1.27;71.17;99318.88;4999440;28;20042;-62
2024/01/27 01:00:13;;;;;;;22.40;8.85;;;;;;;-1.10;70.88;99363.16;4986904;28;20404;-63
2024/01/27 01:02:40;;;;;;;28.40;9.93;;;;;;;-1.08;71.06;99353.84;4977287;28;20054;-62
2024/01/27 01:05:07;;;;;;;20.90;9.20;;;;;;;-1.07;71.18;99345.34;4984324;28;20050;-62
2024/01/27 01:07:33;;;;;;;24.55;10.27;;;;;;;-1.11;71.25;99346.19;4985792;28;20599;-64
2024/01/27 01:10:00;;;;;;;21.05;9.07;;;;;;;-1.17;71.35;99347.84;4953554;28;20041;-63
2024/01/27 01:12:26;;;;;;;19.58;9.57;;;;;;;-1.18;71.69;99346.97;4986387;28;20037;-62
2024/01/27 01:14:52;;;;;;;22.00;9.20;;;;;;;-1.20;71.51;99358.03;4980368;28;20093;-64
2024/01/27 01:17:18;;;;;;;23.00;9.07;;;;;;;-1.19;71.37;99358.00;4953552;28;20037;-62
2024/01/27 01:19:44;;;;;;;26.25;9.88;;;;;;;-1.20;71.59;99352.91;4993451;28;20037;-62
2024/01/27 01:22:10;;;;;;;19.42;9.40;;;;;;;-1.23;71.46;99348.63;5004277;28;20041;-62
2024/01/27 01:24:37;;;;;;;21.83;9.43;;;;;;;-1.43;71.59;99323.00;5003739;28;20140;-63
2024/01/27 01:27:04;;;;;;;21.65;8.80;;;;;;;-1.30;71.40;99352.84;4971680;28;20057;-63
2024/01/27 01:29:29;;;;;;;20.92;9.05;;;;;;;-1.29;71.51;99348.59;4968225;28;20053;-63
2024/01/27 01:31:55;;;;;;;20.42;8.98;;;;;;;-1.51;71.27;99311.03;4989796;28;20038;-63
2024/01/27 01:34:21;;;;;;;21.77;10.05;;;;;;;-1.38;71.71;99345.97;5001870;28;20710;-63
2024/01/27 01:36:48;;;;;;;22.27;10.05;;;;;;;-1.35;71.67;99346.84;4977333;28;20179;-63
2024/01/27 01:39:14;;;;;;;19.52;7.72;;;;;;;-1.56;71.75;99320.31;4998216;28;20082;-62
2024/01/27 01:41:40;;;;;;;20.23;8.80;;;;;;;-1.39;71.56;99355.31;4983824;28;20236;-61
2024/01/27 01:44:07;;;;;;;21.15;9.55;;;;;;;-1.42;71.56;99359.56;5002505;28;20510;-62
2024/01/27 01:46:33;;;;;;;22.05;9.27;;;;;;;-1.44;71.80;99356.13;4975734;28;20037;-62
2024/01/27 01:49:00;;;;;;;24.48;10.10;;;;;;;-1.43;71.75;99355.28;5007520;28;20514;-63
2024/01/27 01:51:26;;;;;;;24.42;8.75;;;;;;;-1.47;71.92;99354.41;4991195;28;20496;-62
2024/01/27 01:53:56;;;;;;;20.35;8.93;;;;;;;-1.50;71.84;99361.16;5007353;28;20041;-61
2024/01/27 01:56:23;;;;;;;23.10;9.82;;;;;;;-1.55;72.08;99358.56;5008680;28;20147;-63
2024/01/27 01:58:50;;;;;;;26.08;10.43;;;;;;;-1.57;71.98;99352.59;5006938;28;20063;-61
2024/01/27 02:01:19;;;;;;;21.92;9.63;;;;;;;-1.57;72.22;99357.69;4992072;28;20045;-62
2024/01/27 02:03:55;;;;;;;23.10;9.57;;;;;;;-1.78;72.18;99316.78;4975777;28;20037;-62
2024/01/27 02:06:21;;;;;;;21.02;8.32;;;;;;;-1.55;72.25;99362.81;5006637;28;20103;-61
2024/01/27 02:08:47;;;;;;;21.90;9.20;;;;;;;-1.58;72.19;99360.25;4989752;28;20128;-68
2024/01/27 02:11:14;;;;;;;22.60;9.25;;;;;;;-1.59;72.25;99369.59;4992383;28;20045;-61
2024/01/27 02:13:40;;;;;;;21.85;10.25;;;;;;;-1.57;72.13;99367.88;5004195;28;20045;-58
2024/01/27 02:16:06;;;;;;;19.05;9.40;;;;;;;-1.56;72.14;99372.16;4982247;28;20045;-60
2024/01/27 02:18:32;;;;;;;23.02;9.48;;;;;;;-1.59;72.36;99366.19;5003470;28;20053;-61
2024/01/27 02:20:58;;;;;;;20.55;9.35;;;;;;;-1.58;72.11;99378.94;4991978;28;20034;-61
2024/01/27 02:23:24;;;;;;;28.48;9.50;;;;;;;-1.63;72.34;99377.19;4971877;28;20049;-63
2024/01/27 02:25:50;;;;;;;22.27;9.68;;;;;;;-1.85;72.53;99348.09;4987839;28;20046;-61
2024/01/27 02:28:17;;;;;;;24.17;10.13;;;;;;;-1.65;72.30;99382.28;4972786;28;20057;-60
2024/01/27 02:30:43;;;;;;;24.50;10.65;;;;;;;-1.66;72.77;99390.75;4983544;28;20034;-62
2024/01/27 02:33:09;;;;;;;21.50;9.95;;;;;;;-1.65;72.88;99394.16;4979776;28;20053;-62
2024/01/27 02:35:35;;;;;;;19.67;9.32;;;;;;;-1.63;72.56;99390.81;4996132;28;20034;-63
2024/01/27 02:38:01;;;;;;;22.70;10.07;;;;;;;-1.60;72.80;99395.06;4974498;28;20038;-59
2024/01/27 02:40:27;;;;;;;24.77;9.82;;;;;;;-1.68;72.64;99389.91;5005864;28;20141;-63
2024/01/27 02:42:53;;;;;;;23.05;9.75;;;;;;;-1.64;72.47;99401.81;4984059;28;20050;-63
2024/01/27 02:45:19;;;;;;;21.42;8.90;;;;;;;-1.67;72.40;99404.31;5002431;28;20107;-61
2024/01/27 02:47:45;;;;;;;22.15;8.65;;;;;;;-1.64;72.49;99399.28;4973757;28;20115;-62
2024/01/27 02:50:11;;;;;;;20.70;7.95;;;;;;;-1.83;72.48;99360.00;4992968;28;20787;-63
2024/01/27 02:52:37;;;;;;;18.20;7.45;;;;;;;-1.63;72.56;99387.41;4979715;28;20059;-63
2024/01/27 02:55:03;;;;;;;15.77;7.70;;;;;;;-1.88;72.26;99351.47;4982757;28;20041;-61
2024/01/27 02:57:31;;;;;;;20.42;7.65;;;;;;;-1.98;72.30;99348.81;4951589;28;20057;-61
2024/01/27 02:59:57;;;;;;;13.77;6.97;;;;;;;-1.68;72.20;99394.16;4971895;28;20046;-61
2024/01/27 03:02:23;;;;;;;17.85;7.78;;;;;;;-1.70;72.28;99391.56;4997288;28;20433;-63
2024/01/27 03:04:49;;;;;;;19.27;8.35;;;;;;;-1.71;72.31;99394.94;4963180;28;20125;-66
2024/01/27 03:07:15;;;;;;;16.52;8.05;;;;;;;-1.72;72.37;99391.53;4989084;28;20047;-62
2024/01/27 03:09:41;;;;;;;20.10;8.07;;;;;;;-1.82;72.13;99360.88;4971092;28;20036;-63
2024/01/27 03:12:07;;;;;;;15.85;7.47;;;;;;;-2.03;72.23;99333.50;4975700;28;20105;-62
2024/01/27 03:14:33;;;;;;;17.13;7.60;;;;;;;-1.79;71.85;99368.56;4971814;28;20132;-62
2024/01/27 03:17:00;;;;;;;17.00;7.57;;;;;;;-1.59;71.80;99399.31;4997824;28;20096;-60
2024/01/27 03:19:26;;;;;;;17.45;8.20;;;;;;;-1.71;71.87;99380.53;4996771;28;20037;-61
2024/01/27 03:21:53;;;;;;;20.20;8.27;;;;;;;-1.58;71.73;99398.50;4979901;28;20053;-63
2024/01/27 03:24:20;;;;;;;18.90;8.20;;;;;;;-1.53;71.61;99400.25;4995258;28;20034;-64
2024/01/27 03:26:46;;;;;;;22.25;9.07;;;;;;;-1.52;71.37;99412.16;4980607;28;20068;-62
2024/01/27 03:29:12;;;;;;;16.20;8.32;;;;;;;-1.51;71.44;99415.53;4994518;28;20034;-62
2024/01/27 03:31:39;;;;;;;20.77;9.07;;;;;;;-1.52;71.64;99412.16;4976686;28;20095;-62
2024/01/27 03:34:06;;;;;;;21.52;9.38;;;;;;;-1.52;71.24;99409.59;4980416;28;20046;-62
2024/01/27 03:36:32;;;;;;;20.58;8.45;;;;;;;-1.51;71.16;99413.84;4981119;28;20137;-63
2024/01/27 03:38:58;;;;;;;24.65;9.35;;;;;;;-1.54;71.54;99421.47;4995112;28;20486;-62
2024/01/27 03:41:26;;;;;;;20.05;8.80;;;;;;;-1.55;71.13;99419.75;4992430;28;20163;-62
2024/01/27 03:43:52;;;;;;;20.88;9.68;;;;;;;-1.62;71.23;99410.31;4999627;28;20612;-63
2024/01/27 03:46:18;;;;;;;20.42;9.07;;;;;;;-1.54;71.28;99423.16;4994739;28;20046;-63
2024/01/27 03:48:44;;;;;;;16.33;8.70;;;;;;;-1.72;71.33;99386.44;4995588;28;20041;-63
2024/01/27 03:51:10;;;;;;;19.42;8.88;;;;;;;-1.50;70.95;99428.28;4979538;28;20070;-62
2024/01/27 03:53:36;;;;;;;22.70;8.50;;;;;;;-1.52;71.07;99419.78;5001112;28;20038;-62
2024/01/27 03:56:04;;;;;;;18.30;8.93;;;;;;;-1.53;70.88;99435.06;4954614;28;20282;-62
2024/01/27 03:58:31;;;;;;;21.85;8.70;;;;;;;-1.56;70.97;99446.06;4993178;28;20132;-63
2024/01/27 04:00:57;;;;;;;19.58;8.95;;;;;;;-1.55;70.91;99439.28;4954726;28;20046;-63
2024/01/27 04:03:23;;;;;;;21.00;9.55;;;;;;;-1.56;71.06;99438.44;4972125;28;20037;-62
2024/01/27 04:05:49;;;;;;;17.20;7.70;;;;;;;-1.60;70.75;99446.88;4988735;28;20042;-64
2024/01/27 04:08:15;;;;;;;17.38;7.97;;;;;;;-1.58;70.65;99455.41;4995700;28;20053;-61
2024/01/27 04:10:42;;;;;;;14.15;7.40;;;;;;;-1.60;70.44;99456.22;4979357;28;20045;-62
2024/01/27 04:13:09;;;;;;;16.02;7.53;;;;;;;-1.61;70.60;99455.38;4975612;28;20520;-61
2024/01/27 04:15:38;;;;;;;16.08;7.30;;;;;;;-1.63;70.44;99453.66;4977422;28;20048;-62
2024/01/27 04:18:09;;;;;;;15.27;7.25;;;;;;;-1.56;70.06;99463.06;5000255;28;20068;-62
2024/01/27 04:20:35;;;;;;;15.30;6.25;;;;;;;-1.57;70.32;99469.84;4991815;28;20042;-62
2024/01/27 04:23:02;;;;;;;18.23;7.28;;;;;;;-1.64;70.33;99468.09;4965739;28;20038;-63
2024/01/27 04:25:28;;;;;;;16.02;7.60;;;;;;;-1.75;69.95;99434.84;4994809;28;20048;-63
2024/01/27 04:27:55;;;;;;;16.58;7.38;;;;;;;-1.58;70.16;99468.16;4995111;28;20145;-63
2024/01/27 04:30:21;;;;;;;18.48;7.70;;;;;;;-1.99;70.40;99406.53;4954288;28;20141;-62
2024/01/27 04:32:49;;;;;;;22.60;7.53;;;;;;;-1.58;70.01;99475.81;4979664;28;20050;-62
2024/01/27 04:35:15;;;;;;;18.10;7.97;;;;;;;-1.76;70.23;99447.56;4978364;28;20041;-62
2024/01/27 04:37:41;;;;;;;18.42;6.93;;;;;;;-1.56;70.10;99483.44;4978010;28;20037;-63
2024/01/27 04:40:08;;;;;;;17.73;8.10;;;;;;;-1.53;70.12;99483.50;4994209;28;20049;-62
2024/01/27 04:42:40;;;;;;;15.52;6.90;;;;;;;-1.53;69.90;99484.34;4994443;28;20073;-59
2024/01/27 04:45:07;;;;;;;16.02;7.43;;;;;;;-1.70;69.95;99457.81;4979843;28;20105;-63
2024/01/27 04:47:34;;;;;;;21.13;8.65;;;;;;;-1.50;69.80;99488.63;4994209;28;20041;-63
2024/01/27 04:50:01;;;;;;;14.35;7.07;;;;;;;-1.72;70.03;99449.28;4996220;28;20041;-62
2024/01/27 04:52:31;;;;;;;14.98;7.50;;;;;;;-1.50;69.56;99489.47;5000629;28;20037;-61
2024/01/27 04:54:58;;;;;;;18.45;8.32;;;;;;;-1.50;69.76;99488.63;4993992;28;20046;-64
2024/01/27 04:57:24;;;;;;;19.02;8.30;;;;;;;-1.53;69.70;99497.09;4994072;28;20098;-63
2024/01/27 04:59:50;;;;;;;17.92;8.48;;;;;;;-1.54;69.84;99489.44;4963591;28;20038;-64
2024/01/27 05:02:16;;;;;;;20.95;8.93;;;;;;;-1.73;69.65;99461.19;4992357;28;20050;-63
2024/01/27 05:04:42;;;;;;;21.33;8.60;;;;;;;-1.76;69.81;99462.84;4949515;28;20140;-62
2024/01/27 05:07:08;;;;;;;24.00;8.95;;;;;;;-1.52;70.01;99490.31;4975388;28;20144;-62
2024/01/27 05:09:34;;;;;;;18.67;8.48;;;;;;;-1.53;69.64;99502.19;4995798;28;20115;-62
2024/01/27 05:12:01;;;;;;;19.70;8.50;;;;;;;-1.52;69.71;99493.72;4992690;28;20046;-62
2024/01/27 05:14:27;;;;;;;20.00;8.60;;;;;;;-1.55;69.59;99508.09;4994793;28;20045;-56
2024/01/27 05:16:52;;;;;;;18.67;8.05;;;;;;;-1.72;69.71;99487.53;4962854;28;20054;-61
2024/01/27 05:19:18;;;;;;;17.42;7.50;;;;;;;-1.62;69.72;99501.25;5000507;28;20099;-62
2024/01/27 05:21:44;;;;;;;23.27;7.55;;;;;;;-1.73;69.61;99514.69;5004824;28;20049;-62
2024/01/27 05:24:10;;;;;;;19.27;7.50;;;;;;;-1.68;69.88;99521.56;4997912;28;20056;-62
2024/01/27 05:26:36;;;;;;;14.25;7.15;;;;;;;-1.72;69.94;99511.31;4983297;28;20057;-63
2024/01/27 05:29:02;;;;;;;16.85;6.70;;;;;;;-1.76;69.61;99522.31;4979118;28;20045;-62
2024/01/27 05:31:28;;;;;;;12.50;6.35;;;;;;;-1.89;69.69;99500.09;5009332;28;20485;-62
2024/01/27 05:33:55;;;;;;;15.10;6.18;;;;;;;-1.85;69.34;99516.25;5008509;28;20037;-61
2024/01/27 05:36:21;;;;;;;15.65;6.57;;;;;;;-2.01;69.55;99517.75;5000321;28;20086;-64
2024/01/27 05:38:47;;;;;;;15.63;6.30;;;;;;;-2.24;69.59;99488.56;4989037;28;20079;-61
2024/01/27 05:41:13;;;;;;;14.15;6.97;;;;;;;-1.98;69.59;99525.41;4988312;28;20532;-62
2024/01/27 05:43:39;;;;;;;15.88;6.10;;;;;;;-1.99;69.76;99528.78;4992157;28;20050;-61
2024/01/27 05:46:05;;;;;;;15.38;6.50;;;;;;;-1.96;69.72;99526.31;4975946;28;20034;-62
2024/01/27 05:48:33;;;;;;;14.02;6.15;;;;;;;-2.17;69.61;99508.19;5009933;28;20065;-63
2024/01/27 05:51:00;;;;;;;12.07;5.80;;;;;;;-1.97;69.54;99544.09;4999474;28;20049;-61
2024/01/27 05:53:26;;;;;;;19.25;6.07;;;;;;;-2.00;69.50;99549.16;4995271;28;20068;-61
2024/01/27 05:55:54;;;;;;;13.50;5.18;;;;;;;-2.01;69.62;99545.75;4990577;28;20509;-62
2024/01/27 05:58:23;;;;;;;14.93;6.20;;;;;;;-2.23;69.64;99506.41;5000802;28;20089;-59
2024/01/27 06:00:49;;;;;;;14.55;6.05;;;;;;;-2.00;69.60;99551.72;5001114;28;20052;-62
2024/01/27 06:03:17;;;;;;;16.85;6.75;;;;;;;-2.19;69.42;99523.44;4982651;28;20066;-63
2024/01/27 06:05:43;;;;;;;15.57;6.45;;;;;;;-1.97;69.40;99555.16;4994956;28;20108;-57
2024/01/27 06:08:09;;;;;;;12.93;5.75;;;;;;;-2.24;68.89;99524.22;4999811;28;20069;-63
2024/01/27 06:10:38;;;;;;;14.88;6.40;;;;;;;-2.00;69.51;99559.34;4988041;28;20125;-59
2024/01/27 06:13:05;;;;;;;14.27;6.20;;;;;;;-2.01;69.25;99558.50;5000484;28;20553;-59
2024/01/27 06:15:31;;;;;;;12.15;5.50;;;;;;;-2.02;69.61;99566.13;4957072;28;20289;-56
2024/01/27 06:17:57;;;;;;;15.15;5.40;;;;;;;-2.00;69.44;99570.41;4987989;28;20179;-58
2024/01/27 06:20:25;;;;;;;14.40;6.32;;;;;;;-1.96;69.42;99568.75;4990470;28;20046;-60
2024/01/27 06:22:54;;;;;;;13.68;6.07;;;;;;;-2.20;69.55;99531.91;4970044;28;20050;-62
2024/01/27 06:25:21;;;;;;;14.57;5.75;;;;;;;-1.98;69.44;99576.34;4989434;28;20161;-66
2024/01/27 06:27:47;;;;;;;15.63;5.95;;;;;;;-2.00;69.31;99580.59;4997139;28;20069;-56
2024/01/27 06:30:14;;;;;;;15.50;5.63;;;;;;;-2.19;69.37;99540.41;4983842;28;20041;-57
2024/01/27 06:32:41;;;;;;;14.88;6.22;;;;;;;-1.94;69.44;99579.81;4969896;28;20042;-59
2024/01/27 06:35:08;;;;;;;11.57;5.95;;;;;;;-2.38;69.41;99510.44;4998357;28;20050;-57
2024/01/27 06:37:35;;;;;;;13.05;5.45;;;;;;;-2.02;69.27;99578.84;4965926;28;20062;-58
2024/01/27 06:40:01;;;;;;;13.27;6.05;;;;;;;-2.05;69.51;99589.00;4961580;28;20137;-54
2024/01/27 06:42:30;;;;;;;12.13;5.63;;;;;;;-2.05;69.70;99596.66;4969004;28;20038;-57
2024/01/27 06:44:57;;;;;;;15.77;5.63;;;;;;;-2.25;69.49;99556.44;4958982;28;20045;-54
2024/01/27 06:47:23;;;;;;;20.27;5.70;;;;;;;-2.02;69.61;99594.13;5008837;28;20140;-57
2024/01/27 06:49:49;;;;;;;13.05;6.28;;;;;;;-1.98;69.71;99603.53;5008585;28;20818;-58
2024/01/27 06:52:15;;;;;;;13.40;6.22;;;;;;;-1.99;69.53;99600.13;4993710;28;20037;-56
2024/01/27 06:54:43;;;;;;;12.40;5.68;;;;;;;-1.97;69.88;99597.59;4976858;28;20093;-61
2024/01/27 06:57:21;;;;;;;14.82;6.05;;;;;;;-2.43;69.66;99512.06;4976498;28;20560;-61
2024/01/27 06:59:52;;;;;;;12.18;5.63;;;;;;;-2.18;69.66;99563.34;4993619;28;20048;-61
2024/01/27 07:02:26;;;;;;;14.55;5.90;;;;;;;-2.22;69.36;99550.56;4979064;28;20034;-60
2024/01/27 07:04:53;;;;;;;17.35;5.97;;;;;;;-2.00;69.35;99597.56;5003725;28;20140;-61
2024/01/27 07:07:23;;;;;;;14.65;6.03;;;;;;;-2.03;69.47;99598.38;4961446;28;20057;-60
2024/01/27 07:09:50;;;;;;;12.68;5.53;;;;;;;-2.11;69.44;99607.59;4998511;28;20034;-63
2024/01/27 07:12:16;;;;;;;15.32;6.30;;;;;;;-2.25;69.49;99593.81;4968010;28;20042;-62
2024/01/27 07:14:42;;;;;;;17.50;6.50;;;;;;;-2.22;69.60;99586.19;4977862;28;20600;-61
2024/01/27 07:17:08;;;;;;;15.43;6.68;;;;;;;-1.97;69.69;99623.94;4999100;28;20065;-61
2024/01/27 07:19:34;;;;;;;15.27;6.07;;;;;;;-1.94;69.54;99628.22;4980127;28;20823;-61
2024/01/27 07:22:00;;;;;;;16.45;6.70;;;;;;;-1.93;69.67;99619.72;5006686;28;20042;-61
2024/01/27 07:24:27;;;;;;;15.95;6.65;;;;;;;-2.12;69.25;99585.50;5002776;28;20108;-61
2024/01/27 07:26:53;;;;;;;13.13;5.82;;;;;;;-2.01;69.21;99624.72;4996976;28;20885;-60
2024/01/27 07:29:20;;;;;;;15.07;6.82;;;;;;;-1.99;69.31;99625.59;4964211;28;20085;-61
2024/01/27 07:31:46;;;;;;;14.77;6.85;;;;;;;-1.93;69.26;99635.00;4999365;28;20041;-60
2024/01/27 07:34:12;;;;;;;17.63;6.95;;;;;;;-2.26;69.59;99580.22;4977441;28;20532;-62
2024/01/27 07:36:38;;;;;;;22.52;7.28;;;;;;;-1.86;69.38;99642.78;4999410;28;20046;-60
2024/01/27 07:39:05;;;;;;;16.08;6.35;;;;;;;-1.92;69.38;99631.63;4998114;28;20037;-61
2024/01/27 07:41:31;;;;;;;18.90;7.43;;;;;;;-1.81;69.15;99645.38;4963300;28;20048;-62
2024/01/27 07:43:57;;;;;;;19.17;7.68;;;;;;;-1.78;69.36;99645.44;4968581;28;20046;-62
2024/01/27 07:46:23;;;;;;;19.20;7.15;;;;;;;-1.97;69.16;99620.53;4980293;28;20057;-63
2024/01/27 07:48:49;;;;;;;14.98;6.68;;;;;;;-1.80;69.33;99649.66;4971057;28;20038;-61
2024/01/27 07:51:16;;;;;;;20.23;7.50;;;;;;;-1.77;68.97;99660.75;4994948;28;20038;-63
2024/01/27 07:53:43;;;;;;;16.85;6.10;;;;;;;-1.71;68.71;99668.47;4958132;28;20046;-61
2024/01/27 07:56:09;;;;;;;16.50;6.82;;;;;;;-1.67;68.79;99660.88;4978949;28;20065;-60
2024/01/27 07:58:35;;;;;;;16.73;7.15;;;;;;;-1.65;68.98;99666.84;5000355;28;20042;-62
2024/01/27 08:01:01;;;;;;;17.35;6.90;;;;;;;-1.72;68.75;99659.09;4999540;28;20429;-59
2024/01/27 08:03:27;;;;;;;15.45;7.72;;;;;;;-1.60;68.88;99662.66;4970355;28;20053;-59
2024/01/27 08:05:55;;;;;;;18.33;6.32;;;;;;;-1.64;69.00;99666.88;4993338;28;20136;-60
2024/01/27 08:08:22;;;;;;;16.67;6.22;;;;;;;-1.79;68.84;99643.72;4988681;28;20090;-59
2024/01/27 08:10:48;;;;;;;13.70;6.30;;;;;;;-2.02;68.82;99604.31;4955743;28;20038;-62
2024/01/27 08:13:13;;;;;;;15.88;6.10;;;;;;;-1.57;68.55;99678.03;4993877;28;20504;-60
2024/01/27 08:15:40;;;;;;;17.15;7.40;;;;;;;-1.59;68.82;99672.91;4999649;28;20035;-62
2024/01/27 08:18:07;;;;;;;16.67;6.60;;;;;;;-1.76;68.40;99648.84;4962456;28;20263;-62
2024/01/27 08:20:33;;;;;;;12.38;6.43;;;;;;;-1.55;68.45;99672.09;5000139;28;20600;-62
2024/01/27 08:22:59;;;;;;;19.00;7.55;;;;;;;-1.44;68.74;99678.19;4988793;28;20080;-62
2024/01/27 08:25:25;;;;;;;15.88;6.45;;;;;;;-1.45;68.60;99673.94;4996378;28;20041;-61
2024/01/27 08:27:51;;;;;;;16.20;6.80;;;;;;;-1.38;68.51;99675.72;4958511;28;20042;-64
2024/01/27 08:30:18;;;;;;;21.45;7.28;;;;;;;-1.32;68.49;99682.59;4971994;28;20054;-62
2024/01/27 08:32:45;;;;;;;19.67;7.47;;;;;;;-1.31;68.34;99685.16;4989333;28;20064;-60
2024/01/27 08:35:11;;;;;;;19.67;7.78;;;;;;;-1.25;68.18;99693.72;4972741;28;20038;-62
2024/01/27 08:37:38;;;;;;;16.73;6.78;;;;;;;-1.46;68.55;99650.94;5005276;28;20040;-63
2024/01/27 08:40:08;;;;;;;14.55;6.30;;;;;;;-1.41;68.15;99664.63;4995646;28;20054;-63
2024/01/27 08:42:34;;;;;;;14.40;6.55;;;;;;;-1.24;68.06;99696.31;4988007;28;20049;-62
2024/01/27 08:45:01;;;;;;;14.85;6.43;;;;;;;-1.26;68.39;99695.44;4988937;28;20049;-64
2024/01/27 08:47:31;;;;;;;14.80;6.70;;;;;;;-1.20;67.99;99692.94;4971824;28;20583;-64
2024/01/27 08:49:57;;;;;;;15.55;7.18;;;;;;;-1.19;68.18;99699.75;4997647;28;20062;-62
2024/01/27 08:52:23;;;;;;;15.57;6.18;;;;;;;-1.14;68.18;99698.13;4977982;28;20042;-62
2024/01/27 08:54:50;;;;;;;17.30;7.60;;;;;;;-1.09;67.87;99699.03;4994467;28;20049;-63
2024/01/27 08:57:16;;;;;;;16.92;6.97;;;;;;;-1.08;68.09;99689.69;5011984;28;20049;-63
2024/01/27 08:59:42;;;;;;;16.30;6.97;;;;;;;-1.06;67.58;99683.78;4986528;28;20037;-61
2024/01/27 09:02:09;;;;;;;24.08;8.07;;;;;;;-0.97;67.62;99690.69;5004189;28;20038;-65
2024/01/27 09:04:35;;;;;;;17.90;7.18;;;;;;;-0.95;67.46;99689.88;4956836;28;20038;-55
2024/01/27 09:07:01;;;;;;;22.73;8.23;;;;;;;-1.15;67.10;99657.31;4982850;28;20524;-56
2024/01/27 09:09:28;;;;;;;21.50;7.85;;;;;;;-1.11;67.41;99669.28;4990782;28;20038;-55
2024/01/27 09:11:54;;;;;;;18.20;7.93;;;;;;;-0.96;67.06;99693.28;4958831;28;20041;-55
2024/01/27 09:14:21;;;;;;;19.13;8.10;;;;;;;-0.98;67.24;99688.97;4987404;28;20061;-55
2024/01/27 09:16:48;;;;;;;18.67;7.75;;;;;;;-0.97;67.32;99695.78;4957824;28;20216;-58
2024/01/27 09:19:14;;;;;;;20.92;8.30;;;;;;;-1.24;67.07;99655.50;4999074;28;20056;-59
2024/01/27 09:21:40;;;;;;;19.08;8.80;;;;;;;-1.17;67.04;99664.09;4978992;28;20053;-60
2024/01/27 09:24:07;;;;;;;20.00;8.75;;;;;;;-0.96;67.09;99698.38;4947546;28;20506;-59
2024/01/27 09:26:33;;;;;;;20.27;8.95;;;;;;;-0.94;67.00;99704.34;4969307;28;20050;-61
2024/01/27 09:28:59;;;;;;;26.40;9.68;;;;;;;-0.90;67.33;99702.69;4969237;28;20039;-60
2024/01/27 09:31:25;;;;;;;21.95;8.95;;;;;;;-1.16;67.05;99659.00;4957657;28;20054;-60
2024/01/27 09:33:53;;;;;;;17.77;8.52;;;;;;;-0.89;67.13;99706.97;4985830;28;20034;-57
2024/01/27 09:36:20;;;;;;;19.27;7.80;;;;;;;-0.87;66.73;99702.72;4983075;28;20050;-58
2024/01/27 09:38:46;;;;;;;18.55;9.00;;;;;;;-0.84;67.11;99707.88;4983507;28;20054;-56
2024/01/27 09:41:17;;;;;;;22.67;9.02;;;;;;;-0.78;67.02;99715.56;4997471;28;20421;-54
2024/01/27 09:43:44;;;;;;;18.85;9.02;;;;;;;-0.79;66.59;99719.00;5006844;28;20037;-55
2024/01/27 09:46:15;;;;;;;22.38;9.82;;;;;;;-0.82;66.85;99715.53;4963943;28;20068;-58
2024/01/27 09:48:42;;;;;;;25.05;10.85;;;;;;;-0.79;66.88;99719.00;4987876;28;20034;-56
2024/01/27 09:51:09;;;;;;;24.33;10.70;;;;;;;-0.74;66.79;99729.25;4987973;28;20058;-56
2024/01/27 09:53:35;;;;;;;21.52;9.65;;;;;;;-0.73;66.80;99721.59;4975025;28;20537;-55
2024/01/27 09:56:03;;;;;;;23.88;10.80;;;;;;;-0.89;66.87;99692.47;4967918;28;20054;-62
2024/01/27 09:58:32;;;;;;;22.08;9.73;;;;;;;-0.67;66.76;99718.25;4937177;28;20189;-58
2024/01/27 10:00:59;;;;;;;27.67;10.52;;;;;;;-0.65;66.61;99731.91;4969328;28;20521;-62
2024/01/27 10:03:27;;;;;;;23.90;10.75;;;;;;;-0.61;66.91;99733.63;4968843;28;20070;-56
2024/01/27 10:05:54;;;;;;;27.77;10.40;;;;;;;-0.58;66.51;99734.53;5005919;28;20065;-61
2024/01/27 10:08:24;;;;;;;19.95;9.77;;;;;;;-0.55;66.47;99741.38;5008379;28;20045;-59
2024/01/27 10:10:59;;;;;;;;;;;;;;;-0.54;66.47;99733.72;4975729;28;20092;-62
2024/01/27 10:13:28;;;;;;;20.90;8.77;;;;;;;-0.71;66.37;99721.59;4974103;28;19921;-63
2024/01/27 10:16:06;;;;;;;19.23;9.25;;;;;;;-0.61;66.13;99749.81;4970004;28;20042;-64
2024/01/27 10:18:33;;;;;;;19.73;9.45;;;;;;;-0.59;66.51;99753.25;4978405;28;20084;-62
2024/01/27 10:21:00;;;;;;;20.38;10.77;;;;;;;-0.58;66.19;99747.31;4957518;28;20404;-62
2024/01/27 10:23:26;;;;;;;22.38;9.70;;;;;;;-0.76;66.11;99720.69;4971681;28;20110;-63
2024/01/27 10:25:53;;;;;;;25.35;10.68;;;;;;;-0.58;66.24;99747.31;4984318;28;20600;-62
2024/01/27 10:28:19;;;;;;;29.25;12.13;;;;;;;-0.52;66.34;99747.34;5001267;28;20042;-62
2024/01/27 10:30:48;;;;;;;26.80;10.77;;;;;;;-0.66;66.30;99709.75;4975569;28;20120;-57
2024/01/27 10:33:14;;;;;;;21.52;10.80;;;;;;;-0.46;66.50;99744.88;4974897;28;20597;-62
2024/01/27 10:35:44;;;;;;;24.55;11.57;;;;;;;-0.65;66.15;99720.00;4952981;28;20048;-61
2024/01/27 10:38:10;;;;;;;25.50;11.27;;;;;;;-0.41;66.16;99762.78;4969925;28;20046;-60
2024/01/27 10:40:37;;;;;;;24.00;10.35;;;;;;;-0.43;66.00;99765.34;4978964;28;20045;-62
2024/01/27 10:43:07;;;;;;;23.05;10.23;;;;;;;-0.48;66.32;99763.59;4993970;28;20606;-56
2024/01/27 10:45:42;;;;;;;28.27;10.35;;;;;;;-0.50;66.07;99755.91;4993222;28;20042;-58
2024/01/27 10:48:12;;;;;;;20.95;9.88;;;;;;;-0.44;66.58;99763.63;5006297;28;20156;-62
2024/01/27 10:50:39;;;;;;;21.88;10.43;;;;;;;-0.42;66.24;99774.69;5001412;28;20065;-62
2024/01/27 10:53:09;;;;;;;25.30;10.80;;;;;;;-0.39;66.09;99771.34;4963538;28;20116;-61
2024/01/27 10:55:37;;;;;;;23.52;11.82;;;;;;;-0.36;66.19;99773.91;4987698;28;20070;-60
2024/01/27 10:58:03;;;;;;;23.60;10.80;;;;;;;-0.38;66.19;99774.75;4979990;28;20069;-62
2024/01/27 11:00:33;;;;;;;28.10;11.38;;;;;;;-0.36;66.25;99773.06;4980985;28;20044;-62
2024/01/27 11:03:02;;;;;;;25.88;10.15;;;;;;;-0.36;66.50;99781.56;4979657;28;20052;-61
2024/01/27 11:05:31;;;;;;;22.88;10.02;;;;;;;-0.34;66.54;99790.13;5005621;28;20129;-60
2024/01/27 11:07:59;;;;;;;18.58;9.73;;;;;;;-0.34;66.50;99779.91;4974774;28;20042;-61
2024/01/27 11:10:25;;;;;;;28.17;9.85;;;;;;;-0.36;66.42;99783.28;4998185;28;20081;-61
2024/01/27 11:12:52;;;;;;;25.08;9.07;;;;;;;-0.43;66.31;99780.69;4980397;28;20050;-61
2024/01/27 11:15:19;;;;;;;25.20;9.80;;;;;;;-0.39;66.57;99786.66;4978301;28;20073;-61
2024/01/27 11:17:46;;;;;;;24.63;9.75;;;;;;;-0.40;66.27;99786.63;4979413;28;20037;-55
2024/01/27 11:20:14;;;;;;;24.67;10.18;;;;;;;-0.43;66.36;99797.69;4992884;28;20065;-59
2024/01/27 11:22:43;;;;;;;19.60;9.18;;;;;;;-0.49;66.47;99793.38;4968188;28;20514;-62